Time;durP1;ratioP1;P1;durP2;ratioP2;P2;SDS_P1;SDS_P2;PMS_P1;PMS_P2;Temp;Humidity;BMP_temperature;BMP_pressure;BME280_temperature;BME280_humidity;BME280_pressure;Samples;Min_cycle;Max_cycle;Signal;HPM_P1;HPM_P2
2021/10/19 00:01:57;;;;;;;9.00;7.32;;;13.80;99.90;;;;;;4939157;29;20039;-83
2021/10/19 00:04:23;;;;;;;7.30;6.57;;;13.80;99.90;;;;;;4920990;29;20456;-82
2021/10/19 00:06:49;;;;;;;7.60;6.07;;;13.80;99.90;;;;;;4921641;29;20024;-83
2021/10/19 00:09:15;;;;;;;7.07;6.05;;;13.80;99.90;;;;;;4921550;29;20031;-84
2021/10/19 00:11:41;;;;;;;8.23;6.28;;;13.70;99.90;;;;;;4920749;29;20031;-83
2021/10/19 00:14:07;;;;;;;7.47;6.65;;;13.80;99.90;;;;;;4921657;29;20035;-83
2021/10/19 00:16:32;;;;;;;8.30;6.18;;;13.80;99.90;;;;;;4921157;29;20027;-83
2021/10/19 00:18:58;;;;;;;7.32;6.47;;;13.80;99.90;;;;;;4919795;29;20086;-84
2021/10/19 00:21:24;;;;;;;7.75;6.95;;;13.70;99.90;;;;;;4920637;29;20089;-83
2021/10/19 00:23:49;;;;;;;11.18;6.93;;;13.70;99.90;;;;;;4937926;29;20035;-83
2021/10/19 00:26:15;;;;;;;9.45;6.47;;;13.70;99.90;;;;;;4919926;29;20036;-83
2021/10/19 00:28:40;;;;;;;9.05;6.75;;;13.70;99.90;;;;;;4920932;29;20023;-84
2021/10/19 00:31:06;;;;;;;7.10;6.18;;;13.70;99.90;;;;;;4920603;29;20016;-84
2021/10/19 00:33:31;;;;;;;8.18;6.93;;;13.70;99.90;;;;;;4920088;29;20123;-84
2021/10/19 00:35:57;;;;;;;8.52;6.93;;;13.70;99.90;;;;;;4920586;29;20058;-83
2021/10/19 00:38:23;;;;;;;9.02;7.15;;;13.70;99.90;;;;;;4920421;29;20426;-83
2021/10/19 00:40:48;;;;;;;8.32;6.95;;;13.70;99.90;;;;;;4919938;29;20059;-83
2021/10/19 00:43:14;;;;;;;7.35;6.55;;;13.70;99.90;;;;;;4920028;29;20036;-81
2021/10/19 00:45:39;;;;;;;9.23;7.10;;;13.70;99.90;;;;;;4919402;29;20075;-81
2021/10/19 00:48:06;;;;;;;9.65;8.25;;;13.70;99.90;;;;;;4919517;29;20054;-81
2021/10/19 00:50:32;;;;;;;10.48;7.53;;;13.70;99.90;;;;;;4937429;29;20016;-81
2021/10/19 00:52:58;;;;;;;8.38;7.07;;;13.70;99.90;;;;;;4919742;29;20047;-81
2021/10/19 00:55:24;;;;;;;8.60;7.72;;;13.70;99.90;;;;;;4919894;29;20037;-81
2021/10/19 00:57:50;;;;;;;8.35;7.45;;;13.70;99.90;;;;;;4920399;29;20126;-81
2021/10/19 01:00:16;;;;;;;7.75;7.05;;;13.70;99.90;;;;;;4920068;29;20082;-81
2021/10/19 01:02:43;;;;;;;8.07;7.28;;;13.70;99.90;;;;;;4919584;29;20043;-81
2021/10/19 01:05:11;;;;;;;7.95;6.75;;;13.70;99.90;;;;;;4936876;29;20058;-82
2021/10/19 01:07:37;;;;;;;7.22;6.47;;;13.70;99.90;;;;;;4936420;29;20078;-81
2021/10/19 01:10:05;;;;;;;9.88;7.05;;;13.70;99.90;;;;;;4919919;29;20432;-81
2021/10/19 01:12:32;;;;;;;7.57;6.80;;;13.70;99.90;;;;;;4937025;29;20042;-81
2021/10/19 01:14:58;;;;;;;7.57;6.88;;;13.70;99.90;;;;;;4919088;29;20020;-82
2021/10/19 01:17:24;;;;;;;9.77;6.55;;;13.80;99.90;;;;;;4919893;29;20157;-82
2021/10/19 01:19:51;;;;;;;8.60;5.93;;;13.80;99.90;;;;;;4919966;29;20503;-83
2021/10/19 01:22:17;;;;;;;7.00;6.32;;;13.70;99.90;;;;;;4935850;29;20031;-82
2021/10/19 01:24:46;;;;;;;8.50;6.70;;;13.70;99.90;;;;;;4919544;29;20480;-81
2021/10/19 01:27:12;;;;;;;7.38;6.63;;;13.70;99.90;;;;;;4919715;29;20051;-81
2021/10/19 01:29:37;;;;;;;7.78;7.07;;;13.70;99.90;;;;;;4936016;29;20488;-84
2021/10/19 01:32:04;;;;;;;9.07;7.30;;;13.80;99.90;;;;;;4919393;29;20031;-84
2021/10/19 01:34:34;;;;;;;7.97;7.18;;;13.80;99.90;;;;;;4936443;29;20023;-84
2021/10/19 01:37:01;;;;;;;7.70;6.60;;;13.80;99.90;;;;;;4918684;29;20034;-84
2021/10/19 01:39:26;;;;;;;9.77;7.57;;;13.70;99.90;;;;;;4919419;29;20027;-80
2021/10/19 01:41:52;;;;;;;7.10;6.07;;;13.80;99.90;;;;;;4919138;29;20119;-81
2021/10/19 01:44:17;;;;;;;8.43;7.53;;;13.80;99.90;;;;;;4918428;29;20042;-81
2021/10/19 01:46:43;;;;;;;8.23;7.10;;;13.70;99.90;;;;;;4919558;29;20023;-81
2021/10/19 01:49:09;;;;;;;7.57;6.88;;;13.70;99.90;;;;;;4919102;29;20067;-81
2021/10/19 01:51:34;;;;;;;7.47;6.68;;;13.80;99.90;;;;;;4918635;29;20024;-81
2021/10/19 01:54:00;;;;;;;9.95;7.32;;;13.80;99.90;;;;;;4918834;29;20118;-80
2021/10/19 01:56:26;;;;;;;7.72;6.88;;;13.80;99.90;;;;;;4919218;29;20016;-82
2021/10/19 01:58:51;;;;;;;8.77;7.18;;;13.80;99.90;;;;;;4918506;29;20380;-81
2021/10/19 02:01:17;;;;;;;7.40;6.68;;;13.80;99.90;;;;;;4902927;29;20536;-82
2021/10/19 02:03:43;;;;;;;8.15;7.15;;;13.90;99.90;;;;;;4918718;29;20036;-85
2021/10/19 02:06:08;;;;;;;8.15;7.35;;;13.90;99.90;;;;;;4918259;29;20024;-84
2021/10/19 02:08:34;;;;;;;10.43;7.55;;;13.90;99.90;;;;;;4918778;29;20035;-85
2021/10/19 02:11:00;;;;;;;8.65;6.30;;;13.90;99.90;;;;;;4917851;29;20420;-84
2021/10/19 02:13:26;;;;;;;10.10;7.07;;;13.90;99.90;;;;;;4919229;29;20019;-84
2021/10/19 02:15:55;;;;;;;7.90;6.93;;;13.90;99.90;;;;;;4919274;29;20071;-84
2021/10/19 02:18:21;;;;;;;9.65;8.02;;;13.90;99.90;;;;;;4918428;29;20024;-83
2021/10/19 02:20:46;;;;;;;7.60;6.80;;;14.00;99.90;;;;;;4918684;29;20116;-84
2021/10/19 02:23:12;;;;;;;7.80;7.03;;;14.00;99.90;;;;;;4918473;29;20035;-83
2021/10/19 02:25:38;;;;;;;7.95;7.10;;;14.00;99.90;;;;;;4917833;29;20468;-84
2021/10/19 02:28:04;;;;;;;9.93;7.38;;;14.00;99.90;;;;;;4918302;29;20055;-84
2021/10/19 02:30:30;;;;;;;6.95;6.18;;;14.00;99.90;;;;;;4918845;29;20465;-81
2021/10/19 02:32:56;;;;;;;8.70;6.55;;;14.00;99.90;;;;;;4917801;29;20083;-80
2021/10/19 02:35:21;;;;;;;7.00;6.30;;;14.10;99.90;;;;;;4918782;29;20046;-81
2021/10/19 02:37:48;;;;;;;8.35;6.97;;;14.10;99.90;;;;;;4918551;29;20469;-81
2021/10/19 02:40:15;;;;;;;7.40;6.63;;;14.10;99.90;;;;;;4917503;29;20027;-81
2021/10/19 02:42:42;;;;;;;6.78;6.15;;;14.10;99.90;;;;;;4918077;29;20028;-81
2021/10/19 02:45:09;;;;;;;7.70;6.03;;;14.10;99.90;;;;;;4918055;29;20035;-81
2021/10/19 02:47:35;;;;;;;7.28;6.57;;;14.10;99.90;;;;;;4917680;29;20114;-81
2021/10/19 02:50:00;;;;;;;8.38;6.75;;;14.10;99.90;;;;;;4918315;29;20168;-80
2021/10/19 02:52:26;;;;;;;7.20;6.47;;;14.10;99.90;;;;;;4918363;29;20047;-80
2021/10/19 02:54:52;;;;;;;6.53;5.93;;;14.10;99.90;;;;;;4917601;29;20070;-81
2021/10/19 02:57:21;;;;;;;7.60;6.75;;;14.10;99.90;;;;;;4918056;29;20547;-80
2021/10/19 02:59:48;;;;;;;6.90;5.82;;;14.10;99.90;;;;;;4918508;29;20034;-81
2021/10/19 03:02:13;;;;;;;6.82;6.13;;;14.20;99.90;;;;;;4934597;29;20027;-81
2021/10/19 03:04:39;;;;;;;6.88;5.72;;;14.20;99.90;;;;;;4918160;29;20391;-80
2021/10/19 03:07:05;;;;;;;6.82;6.07;;;14.20;99.90;;;;;;4917787;29;20384;-80
2021/10/19 03:09:30;;;;;;;7.93;7.03;;;14.10;99.90;;;;;;4922151;29;20070;-80
2021/10/19 03:11:56;;;;;;;7.78;6.97;;;14.20;99.90;;;;;;4922353;29;20087;-80
2021/10/19 03:14:21;;;;;;;7.63;6.82;;;14.20;99.90;;;;;;4921114;29;20023;-80
2021/10/19 03:16:47;;;;;;;8.38;6.80;;;14.20;99.90;;;;;;4939140;29;20472;-80
2021/10/19 03:19:12;;;;;;;8.68;7.35;;;14.10;99.90;;;;;;4921725;29;20102;-80
2021/10/19 03:21:38;;;;;;;7.32;6.53;;;14.20;99.90;;;;;;4921152;29;20028;-80
2021/10/19 03:24:04;;;;;;;8.23;7.15;;;14.20;99.90;;;;;;4921164;29;20042;-80
2021/10/19 03:26:30;;;;;;;7.97;7.18;;;14.20;99.90;;;;;;4921865;29;20035;-81
2021/10/19 03:28:55;;;;;;;9.00;8.10;;;14.20;99.90;;;;;;4937986;29;20082;-82
2021/10/19 03:31:21;;;;;;;8.52;7.68;;;14.20;99.90;;;;;;4939135;29;20103;-82
2021/10/19 03:33:46;;;;;;;9.68;6.80;;;14.20;99.90;;;;;;4921552;29;20436;-82
2021/10/19 03:36:12;;;;;;;7.18;6.47;;;14.20;99.90;;;;;;4920665;29;20483;-82
2021/10/19 03:38:38;;;;;;;7.75;6.85;;;14.20;99.90;;;;;;4938979;29;20053;-82
2021/10/19 03:41:06;;;;;;;7.53;6.78;;;14.20;99.90;;;;;;4921239;29;20031;-82
2021/10/19 03:43:32;;;;;;;7.32;6.55;;;14.30;99.90;;;;;;4938134;29;20036;-82
2021/10/19 03:45:58;;;;;;;6.70;5.93;;;14.30;99.90;;;;;;4921112;29;20024;-82
2021/10/19 03:48:23;;;;;;;7.20;6.50;;;14.30;99.90;;;;;;4921497;29;20091;-82
2021/10/19 03:50:49;;;;;;;8.25;6.47;;;14.30;99.90;;;;;;4935870;29;20024;-81
2021/10/19 03:53:14;;;;;;;7.10;6.40;;;14.30;99.90;;;;;;4949227;28;20063;-82
2021/10/19 03:55:40;;;;;;;7.72;6.93;;;14.30;99.90;;;;;;4949649;29;20027;-82
2021/10/19 03:58:06;;;;;;;6.38;5.78;;;14.30;99.90;;;;;;4939510;29;20070;-82
2021/10/19 04:00:31;;;;;;;7.57;6.78;;;14.40;99.90;;;;;;4940249;29;20416;-81
2021/10/19 04:02:57;;;;;;;7.25;6.50;;;14.40;99.90;;;;;;4939702;29;20475;-81
2021/10/19 04:05:23;;;;;;;8.30;6.75;;;14.40;99.90;;;;;;4939776;29;20512;-82
2021/10/19 04:07:48;;;;;;;6.55;5.95;;;14.40;99.90;;;;;;4957432;29;20333;-82
2021/10/19 04:10:16;;;;;;;7.20;6.53;;;14.40;99.90;;;;;;4957143;29;20050;-82
2021/10/19 04:12:42;;;;;;;7.63;6.43;;;14.40;99.90;;;;;;4957215;29;20033;-83
2021/10/19 04:15:08;;;;;;;7.03;6.32;;;14.40;99.90;;;;;;4956957;29;20034;-82
2021/10/19 04:17:34;;;;;;;7.32;6.63;;;14.40;99.90;;;;;;4939510;29;20020;-83
2021/10/19 04:20:00;;;;;;;6.35;5.75;;;14.40;99.90;;;;;;4956809;28;20110;-82
2021/10/19 04:22:25;;;;;;;7.25;6.45;;;14.50;99.90;;;;;;4939801;29;20023;-82
2021/10/19 04:24:54;;;;;;;7.55;6.72;;;14.50;99.90;;;;;;4956412;29;20050;-82
2021/10/19 04:27:20;;;;;;;7.90;7.10;;;14.50;99.90;;;;;;4957042;29;20053;-82
2021/10/19 04:29:46;;;;;;;7.53;6.82;;;14.50;99.90;;;;;;4939584;29;20114;-82
2021/10/19 04:32:11;;;;;;;7.22;6.55;;;14.50;99.90;;;;;;4956076;29;20492;-82
2021/10/19 04:34:37;;;;;;;8.00;7.22;;;14.50;99.90;;;;;;4939533;29;20531;-81
2021/10/19 04:37:03;;;;;;;7.45;6.75;;;14.50;99.90;;;;;;4952474;28;20051;-81
2021/10/19 04:39:31;;;;;;;7.00;6.35;;;14.50;99.90;;;;;;4921071;29;20110;-82
2021/10/19 04:41:57;;;;;;;6.95;6.25;;;14.50;99.90;;;;;;4952051;29;20051;-81
2021/10/19 04:44:23;;;;;;;6.68;6.00;;;14.60;99.90;;;;;;4938596;29;20061;-82
2021/10/19 04:46:48;;;;;;;7.15;6.55;;;14.60;99.90;;;;;;4954233;28;20484;-82
2021/10/19 04:49:16;;;;;;;7.88;7.07;;;14.60;99.90;;;;;;4954202;28;20094;-82
2021/10/19 04:51:42;;;;;;;8.25;7.45;;;14.60;99.90;;;;;;4939408;29;20082;-82
2021/10/19 04:54:08;;;;;;;7.82;7.03;;;14.60;99.90;;;;;;4955426;28;20051;-82
2021/10/19 04:56:33;;;;;;;7.78;6.75;;;14.60;99.90;;;;;;4939219;29;20114;-83
2021/10/19 04:58:59;;;;;;;8.73;6.90;;;14.60;99.90;;;;;;4955442;28;20102;-82
2021/10/19 05:01:25;;;;;;;7.20;6.50;;;14.60;99.90;;;;;;4938181;29;20156;-82
2021/10/19 05:03:52;;;;;;;7.28;6.50;;;14.60;99.90;;;;;;4956142;29;20440;-81
2021/10/19 05:06:18;;;;;;;7.35;6.65;;;14.60;99.90;;;;;;4951753;29;20560;-82
2021/10/19 05:08:43;;;;;;;8.05;7.25;;;14.60;99.90;;;;;;4953458;29;20106;-82
2021/10/19 05:11:09;;;;;;;7.82;7.03;;;14.60;99.90;;;;;;4938941;29;20066;-81
2021/10/19 05:13:35;;;;;;;7.53;6.90;;;14.60;99.90;;;;;;4956103;29;20034;-80
2021/10/19 05:16:00;;;;;;;7.50;6.72;;;14.60;99.90;;;;;;4935829;29;20027;-84
2021/10/19 05:18:26;;;;;;;7.93;7.22;;;14.60;99.90;;;;;;4932214;29;20552;-81
2021/10/19 05:20:51;;;;;;;7.70;6.40;;;14.60;99.90;;;;;;4937827;29;20020;-83
2021/10/19 05:23:17;;;;;;;7.32;6.50;;;14.60;99.90;;;;;;4936713;29;20027;-81
2021/10/19 05:25:43;;;;;;;7.05;6.22;;;14.60;99.90;;;;;;4955014;29;20114;-81
2021/10/19 05:28:08;;;;;;;7.43;6.72;;;14.70;99.90;;;;;;4953204;29;20029;-81
2021/10/19 05:30:34;;;;;;;7.93;7.13;;;14.70;99.90;;;;;;4938373;29;20031;-81
2021/10/19 05:33:03;;;;;;;6.28;5.68;;;14.60;99.90;;;;;;4938141;29;20015;-84
2021/10/19 05:35:29;;;;;;;5.88;5.30;;;14.60;99.90;;;;;;4938121;29;20118;-84
2021/10/19 05:37:54;;;;;;;8.88;6.75;;;14.70;99.90;;;;;;4938208;29;20539;-78
2021/10/19 05:40:20;;;;;;;6.57;5.97;;;14.70;99.90;;;;;;4938342;29;20471;-82
2021/10/19 05:42:46;;;;;;;6.70;6.10;;;14.70;99.90;;;;;;4937536;29;20059;-81
2021/10/19 05:45:11;;;;;;;6.50;5.78;;;14.70;99.90;;;;;;4938409;29;20070;-77
2021/10/19 05:47:37;;;;;;;6.43;5.82;;;14.70;99.90;;;;;;4938289;29;20023;-83
2021/10/19 05:50:02;;;;;;;6.15;5.55;;;14.70;99.90;;;;;;4936285;29;20023;-80
2021/10/19 05:52:28;;;;;;;6.22;5.63;;;14.70;99.90;;;;;;4936608;29;20044;-81
2021/10/19 05:54:54;;;;;;;7.47;6.05;;;14.70;99.90;;;;;;4938163;29;20027;-85
2021/10/19 05:57:19;;;;;;;5.93;5.32;;;14.70;99.90;;;;;;4920545;29;20488;-83
2021/10/19 05:59:45;;;;;;;6.30;5.68;;;14.80;99.90;;;;;;4918806;29;20023;-86
2021/10/19 06:02:10;;;;;;;6.32;5.72;;;14.80;99.90;;;;;;4917956;29;20047;-77
2021/10/19 06:04:36;;;;;;;5.60;5.07;;;14.80;99.90;;;;;;4918570;29;20046;-77
2021/10/19 06:07:02;;;;;;;5.32;4.82;;;14.80;99.90;;;;;;4918066;29;20070;-81
2021/10/19 06:09:28;;;;;;;5.10;4.70;;;14.80;99.90;;;;;;4919209;29;20514;-79
2021/10/19 06:11:55;;;;;;;5.40;4.65;;;14.80;99.90;;;;;;4918982;29;20020;-85
2021/10/19 06:14:23;;;;;;;5.20;4.70;;;14.80;99.90;;;;;;4937230;29;20439;-80
2021/10/19 06:16:49;;;;;;;6.22;5.63;;;14.80;99.90;;;;;;4937661;29;20089;-82
2021/10/19 06:19:14;;;;;;;5.45;4.95;;;14.80;99.90;;;;;;4936000;29;20436;-81
2021/10/19 06:21:41;;;;;;;5.57;5.07;;;14.80;99.90;;;;;;4916562;29;20040;-79
2021/10/19 06:24:06;;;;;;;5.30;4.80;;;14.80;99.90;;;;;;4917670;29;20070;-79
2021/10/19 06:26:35;;;;;;;5.40;4.90;;;14.90;99.90;;;;;;4918801;29;20072;-78
2021/10/19 06:29:02;;;;;;;5.10;4.70;;;14.90;99.90;;;;;;4917438;29;20074;-78
2021/10/19 06:31:28;;;;;;;5.45;4.95;;;14.90;99.90;;;;;;4950058;29;20137;-86
2021/10/19 06:33:53;;;;;;;4.82;4.43;;;14.90;99.90;;;;;;4935663;29;20099;-82
2021/10/19 06:36:19;;;;;;;6.30;5.40;;;14.90;99.90;;;;;;4935526;29;20027;-79
2021/10/19 06:38:44;;;;;;;5.30;4.80;;;14.90;99.90;;;;;;4935044;29;20032;-81
2021/10/19 06:41:10;;;;;;;5.32;4.80;;;14.90;99.90;;;;;;4934956;29;20028;-85
2021/10/19 06:43:35;;;;;;;4.45;3.83;;;14.90;99.90;;;;;;4934598;29;20111;-80
2021/10/19 06:46:02;;;;;;;5.22;4.72;;;14.90;99.90;;;;;;4934619;29;20047;-77
2021/10/19 06:48:28;;;;;;;4.72;4.32;;;14.90;99.90;;;;;;4918477;29;20123;-77
2021/10/19 06:50:53;;;;;;;4.75;4.35;;;14.90;99.90;;;;;;4950289;29;20349;-78
2021/10/19 06:53:20;;;;;;;4.70;4.30;;;14.90;99.90;;;;;;4929410;29;20448;-77
2021/10/19 06:55:45;;;;;;;4.38;3.97;;;14.90;99.90;;;;;;4937511;29;20031;-77
2021/10/19 06:58:11;;;;;;;4.70;4.30;;;14.90;99.90;;;;;;4954185;29;20078;-77
2021/10/19 07:00:36;;;;;;;5.07;4.57;;;15.00;99.90;;;;;;4953864;29;20031;-77
2021/10/19 07:03:03;;;;;;;5.22;4.72;;;15.00;99.90;;;;;;4954048;29;20023;-77
2021/10/19 07:05:28;;;;;;;4.20;3.85;;;15.00;99.90;;;;;;4954565;29;20415;-77
2021/10/19 07:07:54;;;;;;;4.53;4.13;;;15.00;99.90;;;;;;4936717;29;20027;-77
2021/10/19 07:10:20;;;;;;;4.60;4.18;;;15.00;99.90;;;;;;4936937;29;20035;-76
2021/10/19 07:12:46;;;;;;;4.32;3.92;;;15.00;99.90;;;;;;4937158;29;20019;-77
2021/10/19 07:15:14;;;;;;;4.53;4.10;;;15.00;99.90;;;;;;4936213;29;20171;-80
2021/10/19 07:17:40;;;;;;;9.75;4.00;;;15.00;99.90;;;;;;4937727;29;20548;-83
2021/10/19 07:20:07;;;;;;;4.15;3.80;;;15.00;99.90;;;;;;4937050;29;20023;-80
2021/10/19 07:22:33;;;;;;;5.18;4.68;;;15.00;99.90;;;;;;4936544;29;20110;-83
2021/10/19 07:25:00;;;;;;;5.15;4.65;;;15.10;99.90;;;;;;4936811;29;20041;-81
2021/10/19 07:27:26;;;;;;;4.00;3.70;;;15.10;99.90;;;;;;4953696;29;20015;-81
2021/10/19 07:29:52;;;;;;;5.13;4.72;;;15.10;99.90;;;;;;4937059;29;20038;-79
2021/10/19 07:32:18;;;;;;;4.47;4.07;;;15.10;99.90;;;;;;4953930;29;20023;-76
2021/10/19 07:34:43;;;;;;;4.22;3.88;;;15.10;99.90;;;;;;4936105;29;20034;-77
2021/10/19 07:37:09;;;;;;;4.00;3.70;;;15.10;99.90;;;;;;4936869;29;20371;-78
2021/10/19 07:39:34;;;;;;;4.65;3.90;;;15.20;99.90;;;;;;4937486;29;20027;-78
2021/10/19 07:42:00;;;;;;;4.72;4.30;;;15.20;99.90;;;;;;4936167;29;20408;-77
2021/10/19 07:44:25;;;;;;;4.53;4.13;;;15.20;99.90;;;;;;4953973;29;20376;-77
2021/10/19 07:46:52;;;;;;;4.80;4.35;;;15.20;99.90;;;;;;4936880;29;20027;-82
2021/10/19 07:49:19;;;;;;;4.60;4.20;;;15.30;99.90;;;;;;4953172;29;20062;-81
2021/10/19 07:51:47;;;;;;;4.35;3.95;;;15.30;99.90;;;;;;4936868;29;20476;-78
2021/10/19 07:54:13;;;;;;;6.63;4.68;;;15.30;99.90;;;;;;4935029;29;20047;-81
2021/10/19 07:56:39;;;;;;;5.30;4.80;;;15.30;99.90;;;;;;4936712;29;20074;-78
2021/10/19 07:59:05;;;;;;;5.22;4.72;;;15.30;99.90;;;;;;4937059;29;20039;-79
2021/10/19 08:01:33;;;;;;;5.50;4.82;;;15.30;99.90;;;;;;4937074;29;20503;-82
2021/10/19 08:03:59;;;;;;;5.68;4.30;;;15.40;99.90;;;;;;4936435;29;20036;-81
2021/10/19 08:06:25;;;;;;;4.80;4.30;;;15.30;99.90;;;;;;4937197;29;20031;-79
2021/10/19 08:08:50;;;;;;;4.85;4.45;;;15.40;99.90;;;;;;4937180;29;20031;-78
2021/10/19 08:11:16;;;;;;;5.50;5.00;;;15.40;99.90;;;;;;4936221;29;20108;-87
2021/10/19 08:13:41;;;;;;;5.65;4.38;;;15.40;99.90;;;;;;4936860;29;20039;-84
2021/10/19 08:16:07;;;;;;;4.85;4.45;;;15.40;99.90;;;;;;4937940;29;20028;-84
2021/10/19 08:18:33;;;;;;;5.25;4.85;;;15.50;99.90;;;;;;4936517;29;20024;-78
2021/10/19 08:20:58;;;;;;;4.57;4.18;;;15.50;99.90;;;;;;4936632;29;20079;-84
2021/10/19 08:23:24;;;;;;;4.65;4.25;;;15.50;99.90;;;;;;4936697;29;20032;-77
2021/10/19 08:25:49;;;;;;;4.28;3.88;;;15.50;99.90;;;;;;4937586;29;20032;-81
2021/10/19 08:28:23;;;;;;;5.18;4.60;;;15.60;99.90;;;;;;4936317;29;20155;-76
2021/10/19 08:30:51;;;;;;;4.70;4.30;;;15.50;99.90;;;;;;4935911;29;20024;-83
2021/10/19 08:33:17;;;;;;;4.47;4.07;;;15.60;99.90;;;;;;4937547;29;20062;-76
2021/10/19 08:35:42;;;;;;;4.40;4.00;;;15.60;99.90;;;;;;4936829;29;20473;-84
2021/10/19 08:38:10;;;;;;;4.97;4.57;;;15.60;99.90;;;;;;4935710;29;20123;-78
2021/10/19 08:40:36;;;;;;;5.20;4.70;;;15.70;99.90;;;;;;4936535;29;20078;-82
2021/10/19 08:43:02;;;;;;;4.60;4.20;;;15.70;99.90;;;;;;4936109;29;20036;-77
2021/10/19 08:45:30;;;;;;;4.70;4.35;;;15.70;99.90;;;;;;4935773;29;20476;-81
2021/10/19 08:47:56;;;;;;;4.85;4.45;;;15.70;99.90;;;;;;4936103;29;20509;-77
2021/10/19 08:50:24;;;;;;;5.20;4.80;;;15.70;99.90;;;;;;4937440;29;20055;-82
2021/10/19 08:52:50;;;;;;;6.00;4.57;;;15.70;99.90;;;;;;4944858;28;20562;-83
2021/10/19 08:55:16;;;;;;;4.15;3.85;;;15.80;99.90;;;;;;4939066;29;20027;-85
2021/10/19 08:57:42;;;;;;;4.63;4.22;;;15.80;99.90;;;;;;4955446;29;20024;-86
2021/10/19 09:00:09;;;;;;;4.75;4.35;;;15.80;99.90;;;;;;4938420;29;20020;-84
2021/10/19 09:02:39;;;;;;;4.38;3.97;;;15.80;99.90;;;;;;4956319;29;20669;-77
2021/10/19 09:05:12;;;;;;;4.85;4.30;;;15.90;99.90;;;;;;4937958;29;20384;-77
2021/10/19 09:07:38;;;;;;;4.78;3.90;;;15.90;99.90;;;;;;4938524;29;20031;-76
2021/10/19 09:10:16;;;;;;;4.90;4.50;;;15.90;99.90;;;;;;4938769;29;20027;-78
2021/10/19 09:13:14;;;;;;;4.43;4.03;;;15.90;99.90;;;;;;4954980;29;20479;-79
2021/10/19 09:15:42;;;;;;;4.68;4.28;;;15.90;99.90;;;;;;4927824;29;20038;-84
2021/10/19 09:18:11;;;;;;;4.57;4.18;;;15.90;99.90;;;;;;4954934;29;20183;-80
2021/10/19 09:20:46;;;;;;;4.43;4.03;;;15.90;99.90;;;;;;4938367;29;20069;-78
2021/10/19 09:23:13;;;;;;;3.80;3.50;;;16.00;99.90;;;;;;4955724;29;20019;-78
2021/10/19 09:25:44;;;;;;;4.75;3.88;;;16.00;99.90;;;;;;4938839;29;20033;-80
2021/10/19 09:28:16;;;;;;;4.13;3.30;;;16.00;99.90;;;;;;4937740;29;20019;-78
2021/10/19 09:30:49;;;;;;;3.65;3.33;;;16.00;99.90;;;;;;4938610;29;20031;-85
2021/10/19 09:33:20;;;;;;;3.15;2.95;;;16.10;99.90;;;;;;4938290;29;20205;-81
2021/10/19 09:35:51;;;;;;;3.60;3.30;;;16.10;99.90;;;;;;4937754;29;20383;-83
2021/10/19 09:38:17;;;;;;;3.20;2.90;;;16.10;99.90;;;;;;4955533;29;20353;-81
2021/10/19 09:40:46;;;;;;;3.83;3.30;;;16.10;99.90;;;;;;4938619;29;20330;-81
2021/10/19 09:43:17;;;;;;;4.00;3.17;;;16.10;99.90;;;;;;4937531;29;20139;-80
2021/10/19 09:45:46;;;;;;;2.75;2.55;;;16.10;99.90;;;;;;4938396;29;20118;-80
2021/10/19 09:48:17;;;;;;;3.00;2.80;;;16.10;99.90;;;;;;4954797;29;20413;-77
2021/10/19 09:50:44;;;;;;;2.88;2.67;;;16.20;99.90;;;;;;4954501;29;20042;-77
2021/10/19 09:53:11;;;;;;;4.15;3.08;;;16.20;99.90;;;;;;4937776;29;20094;-78
2021/10/19 09:55:38;;;;;;;2.63;2.42;;;16.20;99.90;;;;;;4954886;29;20090;-78
2021/10/19 09:58:04;;;;;;;3.30;2.47;;;16.20;99.90;;;;;;4955044;29;20372;-78
2021/10/19 10:00:37;;;;;;;2.25;2.00;;;16.30;99.90;;;;;;4955479;29;20023;-80
2021/10/19 10:03:04;;;;;;;2.47;2.28;;;16.30;99.90;;;;;;4937024;29;20023;-80
2021/10/19 10:05:30;;;;;;;2.53;2.30;;;16.30;99.90;;;;;;4937959;29;20031;-82
2021/10/19 10:07:57;;;;;;;2.30;2.10;;;16.40;99.90;;;;;;4955101;29;20031;-78
2021/10/19 10:10:24;;;;;;;2.65;2.45;;;16.40;99.90;;;;;;4937471;29;20023;-79
2021/10/19 10:13:01;;;;;;;3.97;2.50;;;16.40;99.90;;;;;;4938096;29;20019;-79
2021/10/19 10:15:32;;;;;;;1.90;1.80;;;16.50;99.90;;;;;;4937906;29;20387;-80
2021/10/19 10:18:01;;;;;;;2.72;2.03;;;16.50;99.90;;;;;;4953987;28;20526;-80
2021/10/19 10:20:38;;;;;;;2.40;2.25;;;16.50;99.90;;;;;;4938334;29;20020;-79
2021/10/19 10:23:15;;;;;;;2.00;1.83;;;16.50;99.90;;;;;;4953465;29;20026;-80
2021/10/19 10:25:42;;;;;;;1.85;1.75;;;16.50;99.90;;;;;;4937966;29;20487;-78
2021/10/19 10:28:32;;;;;;;2.40;2.20;;;16.50;99.90;;;;;;4954627;29;20035;-83
2021/10/19 10:31:00;;;;;;;1.95;1.85;;;16.60;99.90;;;;;;4937003;29;20122;-83
2021/10/19 10:33:40;;;;;;;2.33;2.13;;;16.60;99.90;;;;;;4937599;29;20019;-84
2021/10/19 10:36:11;;;;;;;3.05;2.58;;;16.70;99.90;;;;;;4954685;29;20105;-79
2021/10/19 10:38:50;;;;;;;3.05;2.75;;;16.70;99.90;;;;;;4937209;29;20027;-79
2021/10/19 10:41:16;;;;;;;2.60;2.40;;;16.70;99.90;;;;;;4937223;29;20027;-79
2021/10/19 10:43:43;;;;;;;2.60;2.40;;;16.70;99.90;;;;;;4937123;29;20042;-78
2021/10/19 10:46:15;;;;;;;3.10;2.80;;;16.70;99.90;;;;;;4936653;29;20030;-78
2021/10/19 10:48:42;;;;;;;3.33;3.05;;;16.80;99.90;;;;;;4954833;29;20387;-78
2021/10/19 10:51:09;;;;;;;3.53;3.22;;;16.80;99.90;;;;;;4954372;29;20031;-79
2021/10/19 10:53:45;;;;;;;3.88;3.55;;;16.80;99.90;;;;;;4936393;29;20114;-79
2021/10/19 10:56:13;;;;;;;4.00;3.55;;;16.90;99.90;;;;;;4937195;29;20082;-80
2021/10/19 10:58:40;;;;;;;4.32;3.50;;;16.90;99.90;;;;;;4953917;29;20146;-78
2021/10/19 11:01:23;;;;;;;4.20;3.60;;;16.90;99.90;;;;;;4937195;29;20045;-80
2021/10/19 11:03:52;;;;;;;3.97;3.65;;;16.90;99.90;;;;;;4954401;29;20035;-79
2021/10/19 11:06:20;;;;;;;4.75;4.00;;;16.90;99.90;;;;;;4936232;29;20031;-79
2021/10/19 11:08:47;;;;;;;4.15;3.75;;;17.00;99.90;;;;;;4954488;29;20023;-79
2021/10/19 11:11:19;;;;;;;4.88;4.38;;;17.00;99.90;;;;;;4937027;29;20038;-79
2021/10/19 11:13:50;;;;;;;;;;;17.00;99.90;;;;;;4936826;29;20038;-78
2021/10/19 11:16:43;;;;;;;4.35;3.95;;;17.00;99.90;;;;;;4952995;29;19965;-78
2021/10/19 11:19:24;;;;;;;5.75;4.65;;;17.00;99.90;;;;;;4937208;29;20023;-79
2021/10/19 11:22:01;;;;;;;4.15;3.75;;;17.00;99.90;;;;;;4937189;29;20494;-81
2021/10/19 11:24:30;;;;;;;5.35;4.85;;;17.10;99.90;;;;;;4937007;29;20470;-79
2021/10/19 11:26:56;;;;;;;5.07;4.38;;;17.10;99.90;;;;;;4936406;29;20098;-77
2021/10/19 11:29:22;;;;;;;4.78;4.28;;;17.10;99.90;;;;;;4939083;29;20027;-77
2021/10/19 11:31:49;;;;;;;5.93;5.13;;;17.20;99.90;;;;;;4941075;29;20031;-77
2021/10/19 11:34:15;;;;;;;5.97;4.15;;;17.20;99.90;;;;;;4939732;29;20051;-81
2021/10/19 11:36:41;;;;;;;6.95;5.32;;;17.30;99.90;;;;;;4958048;29;20209;-78
2021/10/19 11:39:12;;;;;;;5.53;5.03;;;17.30;99.90;;;;;;4940594;29;20031;-78
2021/10/19 11:41:49;;;;;;;8.13;5.25;;;17.30;99.90;;;;;;4940242;29;20074;-78
2021/10/19 11:44:15;;;;;;;6.00;5.50;;;17.30;99.90;;;;;;4957463;29;20126;-79
2021/10/19 11:46:41;;;;;;;5.70;5.20;;;17.30;99.90;;;;;;4957857;29;20106;-79
2021/10/19 11:49:11;;;;;;;6.03;5.43;;;17.30;99.90;;;;;;4939872;29;20035;-79
2021/10/19 11:51:37;;;;;;;6.55;5.82;;;17.30;99.90;;;;;;4957825;29;20074;-79
2021/10/19 11:54:04;;;;;;;6.10;5.50;;;17.40;99.90;;;;;;4939922;29;20051;-78
2021/10/19 11:56:31;;;;;;;5.72;5.15;;;17.40;99.90;;;;;;4939727;29;20019;-79
2021/10/19 11:59:03;;;;;;;7.60;6.13;;;17.40;99.90;;;;;;4940225;29;20049;-80
2021/10/19 12:01:35;;;;;;;7.25;6.55;;;17.50;99.90;;;;;;4957631;29;20019;-79
2021/10/19 12:04:04;;;;;;;10.45;6.63;;;17.50;99.90;;;;;;4939724;29;20133;-81
2021/10/19 12:06:32;;;;;;;7.32;6.63;;;17.50;99.90;;;;;;4940543;29;20024;-81
2021/10/19 12:09:13;;;;;;;8.77;7.05;;;17.50;99.90;;;;;;4939283;29;20494;-82
2021/10/19 12:11:39;;;;;;;8.23;7.43;;;17.60;99.90;;;;;;4940698;29;20461;-79
2021/10/19 12:14:08;;;;;;;7.97;7.18;;;17.50;99.90;;;;;;4957229;29;20055;-79
2021/10/19 12:16:34;;;;;;;7.38;6.68;;;17.50;99.90;;;;;;4939480;29;20427;-78
2021/10/19 12:19:01;;;;;;;7.07;6.40;;;17.50;99.90;;;;;;4939758;29;20019;-79
2021/10/19 12:21:29;;;;;;;7.32;6.53;;;17.50;99.90;;;;;;4940260;29;20026;-77
2021/10/19 12:24:00;;;;;;;7.30;6.60;;;17.50;99.90;;;;;;4938943;29;20027;-80
2021/10/19 12:26:27;;;;;;;9.00;8.13;;;17.50;99.90;;;;;;4940198;29;20519;-83
2021/10/19 12:28:55;;;;;;;7.60;6.65;;;17.50;99.90;;;;;;4957289;29;20038;-80
2021/10/19 12:31:23;;;;;;;7.50;6.80;;;17.50;99.90;;;;;;4939262;29;20023;-80
2021/10/19 12:33:57;;;;;;;7.55;6.85;;;17.50;99.90;;;;;;4957068;29;20030;-78
2021/10/19 12:36:27;;;;;;;7.03;6.32;;;17.50;99.90;;;;;;4957079;29;20050;-79
2021/10/19 12:38:55;;;;;;;7.22;6.53;;;17.50;99.90;;;;;;4939340;29;20026;-78
2021/10/19 12:41:25;;;;;;;7.75;7.05;;;17.50;99.90;;;;;;4956918;28;20436;-83
2021/10/19 12:43:53;;;;;;;7.50;6.35;;;17.50;99.90;;;;;;4938700;29;20034;-77
2021/10/19 12:46:24;;;;;;;8.65;5.85;;;17.40;99.90;;;;;;4939403;29;20063;-77
2021/10/19 12:48:51;;;;;;;6.57;5.95;;;17.40;99.90;;;;;;4939561;29;20110;-78